createdAt,value
2019-02-02T00:02:47.419Z,47.37
2019-02-02T00:07:51.636Z,43.47
2019-02-02T00:12:55.841Z,44.83
2019-02-02T00:18:00.129Z,46.93
2019-02-02T00:23:04.521Z,47.87
2019-02-02T00:28:08.841Z,49.40
2019-02-02T00:33:13.053Z,49.67
2019-02-02T00:38:17.473Z,46.80
2019-02-02T00:43:21.749Z,49.23
2019-02-02T00:48:25.949Z,47.60
2019-02-02T00:53:30.227Z,46.80
2019-02-02T00:58:34.531Z,48.70
2019-02-02T01:03:38.760Z,46.40
2019-02-02T01:08:42.976Z,49.57
2019-02-02T01:13:47.159Z,48.87
2019-02-02T01:18:51.326Z,46.50
2019-02-02T01:23:55.550Z,48.70
2019-02-02T01:28:59.761Z,48.10
2019-02-02T01:34:04.263Z,48.43
2019-02-02T01:39:08.966Z,49.80
2019-02-02T01:44:13.212Z,49.30
2019-02-02T01:49:26.010Z,48.50
2019-02-02T01:54:30.216Z,44.83
2019-02-02T01:59:34.477Z,44.27
2019-02-02T02:04:38.752Z,47.80
2019-02-02T02:09:42.958Z,48.77
2019-02-02T02:14:47.150Z,48.83
2019-02-02T02:19:51.434Z,45.13
2019-02-02T02:24:55.712Z,49.57
2019-02-02T02:29:59.915Z,44.07
2019-02-02T02:35:04.736Z,49.93
2019-02-02T02:40:11.114Z,49.57
2019-02-02T02:45:16.874Z,50.03
2019-02-02T02:50:21.739Z,54.77
2019-02-02T02:55:25.945Z,50.60
2019-02-02T03:00:31.983Z,51.47
2019-02-02T03:05:36.315Z,46.73
2019-02-02T03:10:40.513Z,46.40
2019-02-02T03:15:44.740Z,49.97
2019-02-02T03:20:48.993Z,50.97
2019-02-02T03:25:54.296Z,48.17
2019-02-02T03:30:58.520Z,47.63
2019-02-02T03:36:02.756Z,49.20
2019-02-02T03:41:06.956Z,47.43
2019-02-02T03:46:11.163Z,48.50
2019-02-02T03:51:15.344Z,50.23
2019-02-02T03:56:19.594Z,49.27
2019-02-02T04:01:23.795Z,52.40
2019-02-02T04:06:28.026Z,54.87
2019-02-02T04:11:32.230Z,48.37
2019-02-02T04:16:36.593Z,52.20
2019-02-02T04:21:40.853Z,52.10
2019-02-02T04:26:45.065Z,54.67
2019-02-02T04:31:49.263Z,51.60
2019-02-02T04:36:53.459Z,48.57
2019-02-02T04:41:57.687Z,48.87
2019-02-02T04:47:01.966Z,52.27
2019-02-02T04:52:06.131Z,53.13
2019-02-02T04:57:10.418Z,53.07
2019-02-02T05:02:14.627Z,48.90
2019-02-02T05:07:18.811Z,51.53
2019-02-02T05:12:23.088Z,49.33
2019-02-02T05:17:27.319Z,53.07
2019-02-02T05:22:31.576Z,53.50
2019-02-02T05:27:35.771Z,49.63
2019-02-02T05:32:40.054Z,54.00
2019-02-02T05:37:44.311Z,50.53
2019-02-02T05:42:48.626Z,51.13
2019-02-02T05:47:53.016Z,53.33
2019-02-02T05:52:57.190Z,53.40
2019-02-02T05:58:01.383Z,53.57
2019-02-02T06:03:05.802Z,55.97
2019-02-02T06:08:10.032Z,52.70
2019-02-02T06:13:14.221Z,52.77
2019-02-02T06:18:18.470Z,53.53
2019-02-02T06:23:22.736Z,54.33
2019-02-02T06:28:26.928Z,57.40
2019-02-02T06:33:31.218Z,53.23
2019-02-02T06:38:35.433Z,55.53
2019-02-02T06:43:39.663Z,53.67
2019-02-02T06:48:43.867Z,54.30
2019-02-02T06:53:48.088Z,52.77
2019-02-02T06:58:52.356Z,55.90
2019-02-02T07:03:56.678Z,61.30
2019-02-02T07:09:01.075Z,64.07
2019-02-02T07:14:05.355Z,56.13
2019-02-02T07:19:09.656Z,54.23
2019-02-02T07:24:13.951Z,57.47
2019-02-02T07:29:18.147Z,57.87
2019-02-02T07:34:22.351Z,58.97
2019-02-02T07:39:26.679Z,60.30
2019-02-02T07:44:30.895Z,57.57
2019-02-02T07:49:35.128Z,58.03
2019-02-02T07:54:39.395Z,59.93
2019-02-02T07:59:43.700Z,59.53
2019-02-02T08:04:48.003Z,61.80
2019-02-02T08:09:53.347Z,58.77
2019-02-02T08:14:57.567Z,63.07
2019-02-02T08:20:01.792Z,61.27
2019-02-02T08:25:06.560Z,60.60
2019-02-02T08:30:16.823Z,59.37
2019-02-02T08:35:21.078Z,61.30
2019-02-02T08:40:25.303Z,56.60
2019-02-02T08:45:29.502Z,60.87
2019-02-02T08:50:38.619Z,57.60
2019-02-02T08:55:42.917Z,58.00
2019-02-02T09:00:47.281Z,62.57
2019-02-02T09:05:51.638Z,57.67
2019-02-02T09:10:55.930Z,55.13
2019-02-02T09:16:00.159Z,61.87
2019-02-02T09:21:04.356Z,61.47
2019-02-02T09:26:08.667Z,59.20
2019-02-02T09:31:15.970Z,65.10
2019-02-02T09:36:19.006Z,63.00
2019-02-02T09:41:23.236Z,66.83
2019-02-02T09:46:27.448Z,66.60
2019-02-02T09:51:31.751Z,64.03
2019-02-02T09:56:35.984Z,67.23
2019-02-02T10:01:40.248Z,65.90
2019-02-02T10:06:44.516Z,66.60
2019-02-02T10:11:48.719Z,62.30
2019-02-02T10:16:52.918Z,68.37
2019-02-02T10:21:57.111Z,70.40
2019-02-02T10:27:01.325Z,65.50
2019-02-02T10:32:05.645Z,65.93
2019-02-02T10:37:09.910Z,65.37
2019-02-02T10:42:14.150Z,69.17
2019-02-02T10:47:18.421Z,70.97
2019-02-02T10:52:22.625Z,70.83
2019-02-02T10:57:26.826Z,71.83
2019-02-02T11:02:31.113Z,71.57
2019-02-02T11:07:35.420Z,71.63
2019-02-02T11:12:39.770Z,70.57
2019-02-02T11:17:44.149Z,68.07
2019-02-02T11:22:48.587Z,67.77
2019-02-02T11:27:52.856Z,69.07
2019-02-02T11:32:57.155Z,70.03
2019-02-02T11:38:01.341Z,71.80
2019-02-02T11:43:05.869Z,74.60
2019-02-02T11:48:10.081Z,72.73
2019-02-02T11:53:14.293Z,76.13
2019-02-02T11:58:18.509Z,75.33
2019-02-02T12:03:22.711Z,77.33
2019-02-02T12:08:26.900Z,73.97
2019-02-02T12:13:31.125Z,79.30
2019-02-02T12:18:35.360Z,81.00
2019-02-02T12:23:39.584Z,81.53
2019-02-02T12:28:43.794Z,80.40
2019-02-02T12:33:47.995Z,81.33
2019-02-02T12:38:53.472Z,75.30
2019-02-02T12:43:57.771Z,79.23
2019-02-02T12:49:01.976Z,77.87
2019-02-02T12:54:06.164Z,71.87
2019-02-02T12:59:10.370Z,76.50
2019-02-02T13:04:14.616Z,84.23
2019-02-02T13:09:18.931Z,83.33
2019-02-02T13:14:23.135Z,81.97
2019-02-02T13:19:27.372Z,81.20
2019-02-02T13:24:31.581Z,82.40
2019-02-02T13:29:35.804Z,81.90
2019-02-02T13:34:40.003Z,81.80
2019-02-02T13:39:44.226Z,86.70
2019-02-02T13:44:48.503Z,88.80
2019-02-02T13:49:52.777Z,86.43
2019-02-02T13:54:57.272Z,88.97
2019-02-02T14:00:01.561Z,85.20
2019-02-02T14:05:07.794Z,96.20
2019-02-02T14:10:14.879Z,90.80
2019-02-02T14:15:19.194Z,95.37
2019-02-02T14:20:23.590Z,94.93
2019-02-02T14:25:27.877Z,106.13
2019-02-02T14:30:32.210Z,91.70
2019-02-02T14:35:36.450Z,91.30
2019-02-02T14:40:40.685Z,93.90
2019-02-02T14:45:44.907Z,96.73
2019-02-02T14:50:49.111Z,95.90
2019-02-02T14:55:53.289Z,101.90
2019-02-02T15:00:57.557Z,103.33
2019-02-02T15:06:01.916Z,102.67
2019-02-02T15:11:06.121Z,108.47
2019-02-02T15:16:10.348Z,108.67
2019-02-02T15:21:14.654Z,106.93
2019-02-02T15:26:18.988Z,109.73
2019-02-02T15:31:23.294Z,101.57
2019-02-02T15:36:27.607Z,109.50
2019-02-02T15:41:31.856Z,109.23
2019-02-02T15:46:36.138Z,102.67
2019-02-02T15:51:40.646Z,110.27
2019-02-02T15:56:45.084Z,111.23
2019-02-02T16:01:49.306Z,112.07
2019-02-02T16:06:53.626Z,116.70
2019-02-02T16:11:57.807Z,121.87
2019-02-02T16:17:02.081Z,117.80
2019-02-02T16:22:06.358Z,115.20
2019-02-02T16:27:10.580Z,117.60
2019-02-02T16:32:14.871Z,113.50
2019-02-02T16:37:19.174Z,112.80
2019-02-02T16:42:23.492Z,111.70
2019-02-02T16:47:27.678Z,111.10
2019-02-02T16:52:31.882Z,114.93
2019-02-02T16:57:36.096Z,107.00
2019-02-02T17:02:40.403Z,113.97
2019-02-02T17:07:46.434Z,111.53
2019-02-02T17:12:50.579Z,112.07
2019-02-02T17:17:54.995Z,104.20
2019-02-02T17:22:59.241Z,108.80
2019-02-02T17:28:03.450Z,108.57
2019-02-02T17:33:12.938Z,121.63
2019-02-02T17:38:18.122Z,117.43
2019-02-02T17:43:22.374Z,122.10
2019-02-02T17:48:26.702Z,112.50
2019-02-02T17:53:30.973Z,122.47
2019-02-02T17:58:39.806Z,126.13
2019-02-02T18:03:41.288Z,127.57
2019-02-02T18:08:45.587Z,124.57
2019-02-02T18:13:49.772Z,137.60
2019-02-02T18:18:53.996Z,145.57
2019-02-02T18:23:58.195Z,138.10
2019-02-02T18:29:02.397Z,133.30
2019-02-02T18:34:06.622Z,142.87
2019-02-02T18:39:10.935Z,132.20
2019-02-02T18:44:15.309Z,138.00
2019-02-02T18:49:19.577Z,133.23
2019-02-02T18:54:23.846Z,141.40
2019-02-02T18:59:28.084Z,143.50
2019-02-02T19:04:32.367Z,148.10
2019-02-02T19:09:36.671Z,159.27
2019-02-02T19:14:40.908Z,152.73
2019-02-02T19:19:45.128Z,151.70
2019-02-02T19:24:49.343Z,159.67
2019-02-02T19:29:53.596Z,167.37
2019-02-02T19:34:57.868Z,158.57
2019-02-02T19:40:02.156Z,160.07
2019-02-02T19:45:07.173Z,162.23
2019-02-02T19:50:15.354Z,168.20
2019-02-02T19:55:19.578Z,154.93
2019-02-02T20:00:32.417Z,164.53
2019-02-02T20:05:36.960Z,155.53
2019-02-02T20:10:41.294Z,165.73
2019-02-02T20:15:45.819Z,165.80
2019-02-02T20:20:50.106Z,160.93
2019-02-02T20:25:54.440Z,161.97
2019-02-02T20:30:58.910Z,161.17
2019-02-02T20:36:03.194Z,152.90
2019-02-02T20:41:07.465Z,162.67
2019-02-02T20:46:11.880Z,159.37
2019-02-02T20:51:16.182Z,160.60
2019-02-02T20:56:20.474Z,161.57
2019-02-02T21:01:24.762Z,163.80
2019-02-02T21:06:29.244Z,158.23
2019-02-02T21:11:33.526Z,160.20
2019-02-02T21:16:37.839Z,164.30
2019-02-02T21:21:42.168Z,162.67
2019-02-02T21:26:46.392Z,169.47
2019-02-02T21:31:50.744Z,164.53
2019-02-02T21:36:54.967Z,158.80
2019-02-02T21:41:59.205Z,152.47
2019-02-02T21:47:03.920Z,140.77
2019-02-02T21:52:08.208Z,160.13
2019-02-02T21:57:12.687Z,157.37
2019-02-02T22:02:16.963Z,153.07
2019-02-02T22:07:21.239Z,149.03
2019-02-02T22:12:25.526Z,152.53
2019-02-02T22:17:29.821Z,153.53
2019-02-02T22:22:34.163Z,162.37
2019-02-02T22:27:38.442Z,150.90
2019-02-02T22:32:42.687Z,150.57
2019-02-02T22:37:47.100Z,151.17
2019-02-02T22:42:53.224Z,150.63
2019-02-02T22:47:57.617Z,148.77
2019-02-02T22:53:02.290Z,142.07
2019-02-02T22:58:06.504Z,143.93
2019-02-02T23:03:11.641Z,139.03
2019-02-02T23:09:05.993Z,141.47
2019-02-02T23:14:44.461Z,141.50
2019-02-02T23:19:48.763Z,158.73
2019-02-02T23:24:53.365Z,145.60
2019-02-02T23:29:57.701Z,144.80
2019-02-02T23:35:01.920Z,145.77
2019-02-02T23:40:07.484Z,144.80
2019-02-02T23:45:11.785Z,149.27
2019-02-02T23:50:16.119Z,149.03
2019-02-02T23:55:20.343Z,153.03
